OMY weather

Preah Vinhear Airport
Tbeng Meanchey, Preah Vihear, Cambodia

Public forecast

Using degrees Celsius for public forecast. Weather courtesy of forecast.io.

METAR (pilot weather report)

Closest report is Siem Reap International Airport, 70.8 nm (131.1 km) WSW. Retrieved 2019/04/19 04:30 UTC (14 minutes ago):

VDSR 190430Z VRB05KT 9999 SCT017 35/23 Q1008

TAF (pilot weather forecast)

Forecast is more than 12 hours old.

Closest forecast is Siem Reap International Airport, 70.8 nm (131.1 km) WSW. Retrieved 2019/04/18 00:00 UTC (1 day ago):

TAF VDSR 182300Z 1900/1918 16005KT 9999 SCT017 TEMPO 1906/1911 SCT015 FEW017CB